createdAt,value
2023-04-24T00:00:25.979Z,11.09
2023-04-24T00:02:58.420Z,11.11
2023-04-24T00:05:26.713Z,11.08
2023-04-24T00:07:55.236Z,11.10
2023-04-24T00:10:23.364Z,11.11
2023-04-24T00:12:51.282Z,11.11
2023-04-24T00:15:19.200Z,11.22
2023-04-24T00:17:47.327Z,11.26
2023-04-24T00:20:16.721Z,11.32
2023-04-24T00:22:44.657Z,11.31
2023-04-24T00:25:12.573Z,11.26
2023-04-24T00:27:40.561Z,11.29
2023-04-24T00:30:09.608Z,11.40
2023-04-24T00:32:37.672Z,11.23
2023-04-24T00:35:06.864Z,11.17
2023-04-24T00:37:36.781Z,11.24
2023-04-24T00:40:05.382Z,11.43
2023-04-24T00:42:33.321Z,11.62
2023-04-24T00:45:01.363Z,11.74
2023-04-24T00:47:29.344Z,11.70
2023-04-24T00:49:57.288Z,11.73
2023-04-24T00:52:26.382Z,11.70
2023-04-24T00:54:55.861Z,11.73
2023-04-24T00:57:24.733Z,11.66
2023-04-24T00:59:52.966Z,11.74
2023-04-24T01:02:21.052Z,11.62
2023-04-24T01:04:49.089Z,11.55
2023-04-24T01:07:17.038Z,11.42
2023-04-24T01:09:45.266Z,11.40
2023-04-24T01:12:14.748Z,11.29
2023-04-24T01:14:42.665Z,11.22
2023-04-24T01:17:10.601Z,11.16
2023-04-24T01:19:39.055Z,11.12
2023-04-24T01:22:12.814Z,11.09
2023-04-24T01:24:40.909Z,11.07
2023-04-24T01:27:08.856Z,11.17
2023-04-24T01:29:36.831Z,11.22
2023-04-24T01:32:05.022Z,11.26
2023-04-24T01:34:33.029Z,11.26
2023-04-24T01:37:01.301Z,11.21
2023-04-24T01:39:30.596Z,11.19
2023-04-24T01:41:58.538Z,11.12
2023-04-24T01:44:26.458Z,11.10
2023-04-24T01:46:55.137Z,11.18
2023-04-24T01:49:23.139Z,11.03
2023-04-24T01:51:51.132Z,11.06
2023-04-24T01:54:19.111Z,11.05
2023-04-24T01:56:48.400Z,11.04
2023-04-24T01:59:16.537Z,11.01
2023-04-24T02:01:44.479Z,11.11
2023-04-24T02:04:12.613Z,11.03
2023-04-24T02:06:40.630Z,11.02
2023-04-24T02:09:09.058Z,11.06
2023-04-24T02:11:36.984Z,11.02
2023-04-24T02:14:06.339Z,10.94
2023-04-24T02:16:34.896Z,10.84
2023-04-24T02:19:02.910Z,10.64
2023-04-24T02:21:31.784Z,10.60
2023-04-24T02:23:59.765Z,10.59
2023-04-24T02:26:28.013Z,10.44
2023-04-24T02:28:55.927Z,10.34
2023-04-24T02:31:25.801Z,10.27
2023-04-24T02:33:53.725Z,10.18
2023-04-24T02:36:22.154Z,10.16
2023-04-24T02:38:50.076Z,10.07
2023-04-24T02:41:18.046Z,10.06
2023-04-24T02:43:46.231Z,10.07
2023-04-24T02:46:14.229Z,9.98
2023-04-24T02:48:43.582Z,9.91
2023-04-24T02:51:11.554Z,9.89
2023-04-24T02:53:39.533Z,9.90
2023-04-24T02:56:07.508Z,9.78
2023-04-24T02:58:36.563Z,9.81
2023-04-24T03:01:04.604Z,9.77
2023-04-24T03:03:32.803Z,9.77
2023-04-24T03:06:02.673Z,9.73
2023-04-24T03:08:30.655Z,9.68
2023-04-24T03:10:58.669Z,9.63
2023-04-24T03:13:26.748Z,9.55
2023-04-24T03:15:55.177Z,9.53
2023-04-24T03:18:23.242Z,9.52
2023-04-24T03:20:51.490Z,9.47
2023-04-24T03:23:20.840Z,9.46
2023-04-24T03:25:49.609Z,9.47
2023-04-24T03:28:17.589Z,9.48
2023-04-24T03:30:45.711Z,9.51
2023-04-24T03:33:13.634Z,9.53
2023-04-24T03:35:42.307Z,9.56
2023-04-24T03:38:10.292Z,9.57
2023-04-24T03:40:39.625Z,9.52
2023-04-24T03:43:07.570Z,9.61
2023-04-24T03:45:35.528Z,9.59
2023-04-24T03:48:03.520Z,9.62
2023-04-24T03:50:31.494Z,9.60
2023-04-24T03:52:59.411Z,9.68
2023-04-24T03:55:27.437Z,9.72
2023-04-24T03:57:56.772Z,9.76
2023-04-24T04:00:24.876Z,9.87
2023-04-24T04:02:53.070Z,10.01
2023-04-24T04:05:21.233Z,10.18
2023-04-24T04:07:49.336Z,10.32
2023-04-24T04:10:18.269Z,10.40
2023-04-24T04:12:46.250Z,10.55
2023-04-24T04:15:15.557Z,10.73
2023-04-24T04:17:43.527Z,10.89
2023-04-24T04:20:12.876Z,11.01
2023-04-24T04:22:42.667Z,11.30
2023-04-24T04:25:12.737Z,11.88
2023-04-24T04:27:42.667Z,13.46
2023-04-24T04:30:11.083Z,15.61
2023-04-24T04:32:40.431Z,17.11
2023-04-24T04:35:08.888Z,17.82
2023-04-24T04:37:37.019Z,17.99
2023-04-24T04:40:07.670Z,18.30
2023-04-24T04:42:36.206Z,19.57
2023-04-24T04:45:05.214Z,20.77
2023-04-24T04:47:33.767Z,21.65
2023-04-24T04:50:04.274Z,22.82
2023-04-24T04:52:32.237Z,24.14
2023-04-24T04:55:00.257Z,25.00
2023-04-24T04:57:28.218Z,26.03
2023-04-24T04:59:56.179Z,26.94
2023-04-24T05:02:24.157Z,27.67
2023-04-24T05:04:52.420Z,27.28
2023-04-24T05:07:21.978Z,25.95
2023-04-24T05:09:49.923Z,24.68
2023-04-24T05:12:17.924Z,23.36
2023-04-24T05:14:45.994Z,22.18
2023-04-24T05:17:13.931Z,21.21
2023-04-24T05:19:42.155Z,20.60
2023-04-24T05:22:10.837Z,19.78
2023-04-24T05:24:40.177Z,19.47
2023-04-24T05:27:08.183Z,19.32
2023-04-24T05:29:36.221Z,19.22
2023-04-24T05:32:04.192Z,19.11
2023-04-24T05:34:32.140Z,19.40
2023-04-24T05:37:00.104Z,19.46
2023-04-24T05:39:28.309Z,19.58
2023-04-24T05:41:59.351Z,19.49
2023-04-24T05:44:27.346Z,19.54
2023-04-24T05:46:56.455Z,19.57
2023-04-24T05:49:24.443Z,19.57
2023-04-24T05:51:52.368Z,19.06
2023-04-24T05:54:20.339Z,19.52
2023-04-24T05:56:48.339Z,19.59
2023-04-24T05:59:17.684Z,19.63
2023-04-24T06:01:45.853Z,19.73
2023-04-24T06:04:15.049Z,19.63
2023-04-24T06:06:43.215Z,19.72
2023-04-24T06:09:11.163Z,20.38
2023-04-24T06:11:39.130Z,21.28
2023-04-24T06:14:07.273Z,21.87
2023-04-24T06:16:36.643Z,22.15
2023-04-24T06:19:04.889Z,22.93
2023-04-24T06:21:32.809Z,23.32
2023-04-24T06:24:01.069Z,23.01
2023-04-24T06:26:28.984Z,22.06
2023-04-24T06:28:56.949Z,21.29
2023-04-24T06:31:24.953Z,21.45
2023-04-24T06:33:54.284Z,22.02
2023-04-24T06:36:22.179Z,22.44
2023-04-24T06:38:50.148Z,23.99
2023-04-24T06:41:18.069Z,25.81
2023-04-24T06:43:46.071Z,27.41
2023-04-24T06:46:14.079Z,27.80
2023-04-24T06:48:42.062Z,29.05
2023-04-24T06:51:11.412Z,29.24
2023-04-24T06:53:39.376Z,29.34
2023-04-24T06:56:07.374Z,29.05
2023-04-24T06:58:35.318Z,29.09
2023-04-24T07:01:03.267Z,29.75
2023-04-24T07:03:32.474Z,29.96
2023-04-24T07:06:00.724Z,29.92
2023-04-24T07:08:31.500Z,29.41
2023-04-24T07:10:59.460Z,27.43
2023-04-24T07:13:27.512Z,26.25
2023-04-24T07:15:57.294Z,26.80
2023-04-24T07:18:25.277Z,27.75
2023-04-24T07:20:53.217Z,27.63
2023-04-24T07:23:21.687Z,27.01
2023-04-24T07:25:50.977Z,25.49
2023-04-24T07:28:19.374Z,24.81
2023-04-24T07:30:47.341Z,24.90
2023-04-24T07:33:15.294Z,24.38
2023-04-24T07:35:43.269Z,24.33
2023-04-24T07:38:11.261Z,24.21
2023-04-24T07:40:39.418Z,23.56
2023-04-24T07:43:08.813Z,23.91
2023-04-24T07:45:38.617Z,24.30
2023-04-24T07:48:06.957Z,24.15
2023-04-24T07:50:35.878Z,24.05
2023-04-24T07:53:03.808Z,24.29
2023-04-24T07:55:31.736Z,24.71
2023-04-24T07:57:59.668Z,25.03
2023-04-24T08:00:29.046Z,25.11
2023-04-24T08:02:57.261Z,24.76
2023-04-24T08:05:26.793Z,23.94
2023-04-24T08:07:55.527Z,23.78
2023-04-24T08:10:23.585Z,24.13
2023-04-24T08:12:51.598Z,24.34
2023-04-24T08:15:19.595Z,24.59
2023-04-24T08:17:49.081Z,24.34
2023-04-24T08:20:17.024Z,24.24
2023-04-24T08:22:45.120Z,24.42
2023-04-24T08:25:13.128Z,24.77
2023-04-24T08:27:41.072Z,24.46
2023-04-24T08:30:09.674Z,23.74
2023-04-24T08:32:38.539Z,23.53
2023-04-24T08:35:10.257Z,23.36
2023-04-24T08:37:38.285Z,23.42
2023-04-24T08:40:10.647Z,23.46
2023-04-24T08:42:38.658Z,23.40
2023-04-24T08:45:07.573Z,23.36
2023-04-24T08:47:35.622Z,23.19
2023-04-24T08:50:04.399Z,23.38
2023-04-24T08:52:34.291Z,23.53
2023-04-24T08:55:02.571Z,23.51
2023-04-24T08:57:30.619Z,23.55
2023-04-24T08:59:58.634Z,23.48
2023-04-24T09:02:27.283Z,23.48
2023-04-24T09:04:55.491Z,23.42
2023-04-24T09:07:23.638Z,23.34
2023-04-24T09:09:52.951Z,23.29
2023-04-24T09:12:21.222Z,23.10
2023-04-24T09:14:49.176Z,23.55
2023-04-24T09:17:17.132Z,23.87
2023-04-24T09:19:45.147Z,24.31
2023-04-24T09:22:13.255Z,24.48
2023-04-24T09:24:41.207Z,24.91
2023-04-24T09:27:11.330Z,24.80
2023-04-24T09:29:39.319Z,25.11
2023-04-24T09:32:20.845Z,25.68
2023-04-24T09:34:49.492Z,25.94
2023-04-24T09:37:29.572Z,25.99
2023-04-24T09:40:11.181Z,26.17
2023-04-24T09:42:40.504Z,26.88
2023-04-24T09:45:15.228Z,27.53
2023-04-24T09:47:43.718Z,27.30
2023-04-24T09:50:12.985Z,27.13
2023-04-24T09:52:45.105Z,27.16
2023-04-24T09:55:14.331Z,27.19
2023-04-24T09:57:51.772Z,27.19
2023-04-24T10:00:26.307Z,26.81
2023-04-24T10:02:58.477Z,26.80
2023-04-24T10:05:27.588Z,27.00
2023-04-24T10:07:59.155Z,26.98
2023-04-24T10:10:27.362Z,27.13
2023-04-24T10:12:56.926Z,27.41
2023-04-24T10:15:24.884Z,26.95
2023-04-24T10:17:54.414Z,27.17
2023-04-24T10:20:23.114Z,27.37
2023-04-24T10:22:54.618Z,27.59
2023-04-24T10:25:23.248Z,27.69
2023-04-24T10:27:51.960Z,27.59
2023-04-24T10:30:22.132Z,27.87
2023-04-24T10:32:50.169Z,27.87
2023-04-24T10:35:18.271Z,27.30
2023-04-24T10:37:48.719Z,27.21
2023-04-24T10:40:19.636Z,27.26
2023-04-24T10:42:49.816Z,27.01
2023-04-24T10:45:23.204Z,27.32
2023-04-24T10:47:55.440Z,27.85
2023-04-24T10:50:23.471Z,28.04
2023-04-24T10:52:52.466Z,28.19
2023-04-24T10:55:41.607Z,28.11
2023-04-24T10:58:09.636Z,27.97
2023-04-24T11:00:40.261Z,28.06
2023-04-24T11:03:08.532Z,28.21
2023-04-24T11:05:53.105Z,28.45
2023-04-24T11:08:25.912Z,29.19
2023-04-24T11:11:01.592Z,30.04
2023-04-24T11:13:30.510Z,30.05
2023-04-24T11:16:22.726Z,30.33
2023-04-24T11:18:55.254Z,29.36
2023-04-24T11:21:24.358Z,28.54
2023-04-24T11:23:52.835Z,29.04
2023-04-24T11:26:21.382Z,29.23
2023-04-24T11:28:49.684Z,29.49
2023-04-24T11:31:38.108Z,28.66
2023-04-24T11:34:10.539Z,28.28
2023-04-24T11:36:38.759Z,27.95
2023-04-24T11:39:06.760Z,28.03
2023-04-24T11:41:35.631Z,28.44
2023-04-24T11:44:04.120Z,29.13
2023-04-24T11:46:33.241Z,29.76
2023-04-24T11:49:02.717Z,29.64
2023-04-24T11:51:40.646Z,28.90
2023-04-24T11:54:16.408Z,28.23
2023-04-24T11:56:47.306Z,27.94
2023-04-24T11:59:15.331Z,27.59
2023-04-24T12:01:46.809Z,27.52
2023-04-24T12:04:16.505Z,26.78
2023-04-24T12:07:02.328Z,26.42
2023-04-24T12:09:30.351Z,26.42
2023-04-24T12:11:59.038Z,26.40
2023-04-24T12:14:27.041Z,26.05
2023-04-24T12:16:55.053Z,25.82
2023-04-24T12:19:24.600Z,25.05
2023-04-24T12:22:02.639Z,24.60
2023-04-24T12:24:31.253Z,24.59
2023-04-24T12:26:59.246Z,24.46
2023-04-24T12:29:27.287Z,24.06
2023-04-24T12:31:56.403Z,23.99
2023-04-24T12:34:28.024Z,24.19
2023-04-24T12:36:56.114Z,24.44
2023-04-24T12:39:27.683Z,24.67
2023-04-24T12:41:59.260Z,24.79
2023-04-24T12:44:35.481Z,25.02
2023-04-24T12:47:03.635Z,25.00
2023-04-24T12:49:33.028Z,25.08
2023-04-24T12:52:01.023Z,25.31
2023-04-24T12:54:28.966Z,25.25
2023-04-24T12:56:57.724Z,25.28
2023-04-24T12:59:25.724Z,25.89
2023-04-24T13:01:53.736Z,26.93
2023-04-24T13:04:21.857Z,26.85
2023-04-24T13:06:51.269Z,27.22
2023-04-24T13:09:19.266Z,27.56
2023-04-24T13:11:47.250Z,27.28
2023-04-24T13:14:15.207Z,26.83
2023-04-24T13:16:43.232Z,28.03
2023-04-24T13:19:11.449Z,28.45
2023-04-24T13:21:39.385Z,27.58
2023-04-24T13:24:08.962Z,27.41
2023-04-24T13:26:37.077Z,27.24
2023-04-24T13:29:05.215Z,26.60
2023-04-24T13:31:33.247Z,26.39
2023-04-24T13:34:01.254Z,26.40
2023-04-24T13:36:29.279Z,26.39
2023-04-24T13:38:57.340Z,26.65
2023-04-24T13:41:26.718Z,26.52
2023-04-24T13:43:54.671Z,26.17
2023-04-24T13:46:22.693Z,25.71
2023-04-24T13:48:50.762Z,25.07
2023-04-24T13:51:18.734Z,24.88
2023-04-24T13:53:46.700Z,25.12
2023-04-24T13:56:15.206Z,25.24
2023-04-24T13:58:44.572Z,25.37
2023-04-24T14:01:12.545Z,25.13
2023-04-24T14:03:40.727Z,24.93
2023-04-24T14:06:09.068Z,24.83
2023-04-24T14:08:37.074Z,24.95
2023-04-24T14:11:05.514Z,25.10
2023-04-24T14:13:33.994Z,24.55
2023-04-24T14:16:03.337Z,24.28
2023-04-24T14:18:31.298Z,23.99
2023-04-24T14:20:59.255Z,23.51
2023-04-24T14:23:27.360Z,23.27
2023-04-24T14:25:55.395Z,23.13
2023-04-24T14:28:23.392Z,23.08
2023-04-24T14:30:51.417Z,23.00
2023-04-24T14:33:20.774Z,22.87
2023-04-24T14:35:48.858Z,22.80
2023-04-24T14:38:16.932Z,22.66
2023-04-24T14:41:05.479Z,22.73
2023-04-24T14:43:33.783Z,22.67
2023-04-24T14:46:01.786Z,22.65
2023-04-24T14:48:31.162Z,22.65
2023-04-24T14:50:59.461Z,22.41
2023-04-24T14:53:27.452Z,22.47
2023-04-24T14:55:55.853Z,22.49
2023-04-24T14:58:23.971Z,22.61
2023-04-24T15:00:53.076Z,22.74
2023-04-24T15:03:21.672Z,22.84
2023-04-24T15:05:51.475Z,22.84
2023-04-24T15:08:19.521Z,22.77
2023-04-24T15:10:47.481Z,22.47
2023-04-24T15:13:15.447Z,22.31
2023-04-24T15:15:43.468Z,22.17
2023-04-24T15:18:12.827Z,22.19
2023-04-24T15:20:42.361Z,22.19
2023-04-24T15:23:11.785Z,22.02
2023-04-24T15:25:39.897Z,21.99
2023-04-24T15:28:07.965Z,21.80
2023-04-24T15:30:36.172Z,21.62
2023-04-24T15:33:04.389Z,21.54
2023-04-24T15:35:32.462Z,21.50
2023-04-24T15:38:00.640Z,21.37
2023-04-24T15:40:30.171Z,21.38
2023-04-24T15:42:58.343Z,21.23
2023-04-24T15:45:26.393Z,21.10
2023-04-24T15:47:54.467Z,21.06
2023-04-24T15:50:22.852Z,20.91
2023-04-24T15:52:50.833Z,20.79
2023-04-24T15:55:19.014Z,20.82
2023-04-24T15:57:48.416Z,20.67
2023-04-24T16:00:18.386Z,20.64
2023-04-24T16:02:46.804Z,20.59
2023-04-24T16:05:15.111Z,20.55
2023-04-24T16:07:43.352Z,20.46
2023-04-24T16:10:12.303Z,20.39
2023-04-24T16:12:40.956Z,20.34
2023-04-24T16:15:11.415Z,20.29
2023-04-24T16:17:39.876Z,20.14
2023-04-24T16:20:09.676Z,20.10
2023-04-24T16:22:38.063Z,20.05
2023-04-24T16:25:07.270Z,20.04
2023-04-24T16:27:35.901Z,19.99
2023-04-24T16:30:04.514Z,19.96
2023-04-24T16:32:34.655Z,19.88
2023-04-24T16:35:03.170Z,19.87
2023-04-24T16:37:31.848Z,19.91
2023-04-24T16:40:00.463Z,19.86
2023-04-24T16:42:29.150Z,19.72
2023-04-24T16:44:57.845Z,19.71
2023-04-24T16:47:26.609Z,19.63
2023-04-24T16:49:56.667Z,19.61
2023-04-24T16:52:25.400Z,19.59
2023-04-24T16:54:54.098Z,19.54
2023-04-24T16:57:22.831Z,19.47
2023-04-24T16:59:51.602Z,19.42
2023-04-24T17:02:20.561Z,19.42
2023-04-24T17:04:49.536Z,19.41
2023-04-24T17:07:19.865Z,19.22
2023-04-24T17:09:48.510Z,19.23
2023-04-24T17:12:17.065Z,19.06
2023-04-24T17:14:45.721Z,18.86
2023-04-24T17:17:15.006Z,18.69
2023-04-24T17:19:43.689Z,18.64
2023-04-24T17:22:12.286Z,18.36
2023-04-24T17:24:42.202Z,18.10
2023-04-24T17:27:14.876Z,17.81
2023-04-24T17:29:43.893Z,17.67
2023-04-24T17:32:12.586Z,17.61
2023-04-24T17:34:41.448Z,17.54
2023-04-24T17:37:10.211Z,17.44
2023-04-24T17:39:38.735Z,17.37
2023-04-24T17:42:08.306Z,17.31
2023-04-24T17:44:36.387Z,17.18
2023-04-24T17:47:04.938Z,17.08
2023-04-24T17:49:32.904Z,17.03
2023-04-24T17:52:00.901Z,16.93
2023-04-24T17:54:28.933Z,16.98
2023-04-24T17:56:56.964Z,16.97
2023-04-24T17:59:26.630Z,16.91
2023-04-24T18:01:54.812Z,16.92
2023-04-24T18:04:22.981Z,16.88
2023-04-24T18:06:51.190Z,16.86
2023-04-24T18:09:21.114Z,16.85
2023-04-24T18:11:50.256Z,16.84
2023-04-24T18:14:18.286Z,16.85
2023-04-24T18:16:47.687Z,16.89
2023-04-24T18:19:15.774Z,16.94
2023-04-24T18:21:43.754Z,16.98
2023-04-24T18:24:11.740Z,16.96
2023-04-24T18:26:39.728Z,16.94
2023-04-24T18:29:07.765Z,16.90
2023-04-24T18:31:35.856Z,16.84
2023-04-24T18:34:05.409Z,16.77
2023-04-24T18:36:33.830Z,16.69
2023-04-24T18:39:01.830Z,16.68
2023-04-24T18:41:29.836Z,16.62
2023-04-24T18:43:59.341Z,16.59
2023-04-24T18:46:27.565Z,16.59
2023-04-24T18:48:55.802Z,16.55
2023-04-24T18:51:25.140Z,16.54
2023-04-24T18:53:53.234Z,16.49
2023-04-24T18:56:21.281Z,16.50
2023-04-24T18:58:49.704Z,16.46
2023-04-24T19:01:18.086Z,16.47
2023-04-24T19:03:46.157Z,16.46
2023-04-24T19:06:14.269Z,16.42
2023-04-24T19:08:44.908Z,16.46
2023-04-24T19:11:12.949Z,16.49
2023-04-24T19:13:41.956Z,16.52
2023-04-24T19:16:09.981Z,16.55
2023-04-24T19:18:38.045Z,16.57
2023-04-24T19:21:06.058Z,16.62
2023-04-24T19:23:36.645Z,16.63
2023-04-24T19:26:06.045Z,16.71
2023-04-24T19:28:34.031Z,16.77
2023-04-24T19:31:01.998Z,16.83
2023-04-24T19:33:29.977Z,16.89
2023-04-24T19:35:58.014Z,16.91
2023-04-24T19:38:25.992Z,16.96
2023-04-24T19:40:53.988Z,17.02
2023-04-24T19:43:23.395Z,16.91
2023-04-24T19:45:51.775Z,16.97
2023-04-24T19:48:19.972Z,16.73
2023-04-24T19:50:48.007Z,16.67
2023-04-24T19:53:16.038Z,16.57
2023-04-24T19:55:44.043Z,16.45
2023-04-24T19:58:12.073Z,16.23
2023-04-24T20:00:42.826Z,16.18
2023-04-24T20:03:18.731Z,16.13
2023-04-24T20:05:58.761Z,16.15
2023-04-24T20:08:26.766Z,16.05
2023-04-24T20:10:57.884Z,16.00
2023-04-24T20:13:27.688Z,15.96
2023-04-24T20:15:57.019Z,15.87
2023-04-24T20:18:25.025Z,15.87
2023-04-24T20:20:56.895Z,15.83
2023-04-24T20:23:24.866Z,15.75
2023-04-24T20:25:57.953Z,15.79
2023-04-24T20:28:26.802Z,15.78
2023-04-24T20:30:56.151Z,15.79
2023-04-24T20:33:25.835Z,15.71
2023-04-24T20:35:53.789Z,15.61
2023-04-24T20:38:22.580Z,15.55
2023-04-24T20:40:57.855Z,15.53
2023-04-24T20:43:28.643Z,15.54
2023-04-24T20:45:59.298Z,15.54
2023-04-24T20:48:27.302Z,15.59
2023-04-24T20:50:56.054Z,15.56
2023-04-24T20:53:24.150Z,15.59
2023-04-24T20:55:52.132Z,15.58
2023-04-24T20:58:21.065Z,15.55
2023-04-24T21:00:49.261Z,15.53
2023-04-24T21:03:18.921Z,15.56
2023-04-24T21:05:47.090Z,15.53
2023-04-24T21:08:15.191Z,15.57
2023-04-24T21:10:43.165Z,15.54
2023-04-24T21:13:11.137Z,15.59
2023-04-24T21:15:39.058Z,15.55
2023-04-24T21:18:07.136Z,15.52
2023-04-24T21:20:36.500Z,15.66
2023-04-24T21:23:04.456Z,15.65
2023-04-24T21:25:32.371Z,15.70
2023-04-24T21:28:00.584Z,15.75
2023-04-24T21:30:28.689Z,15.77
2023-04-24T21:32:57.035Z,15.80
2023-04-24T21:35:24.988Z,15.78
2023-04-24T21:37:54.296Z,15.80
2023-04-24T21:40:22.270Z,15.82
2023-04-24T21:42:51.862Z,15.77
2023-04-24T21:45:20.147Z,15.76
2023-04-24T21:47:48.133Z,15.77
2023-04-24T21:50:16.037Z,15.81
2023-04-24T21:52:43.939Z,15.83
2023-04-24T21:55:13.220Z,15.80
2023-04-24T21:57:41.170Z,15.72
2023-04-24T22:00:11.389Z,15.71
2023-04-24T22:02:39.775Z,15.69
2023-04-24T22:05:09.838Z,15.63
2023-04-24T22:07:37.803Z,15.59
2023-04-24T22:10:06.964Z,15.54
2023-04-24T22:12:36.272Z,15.51
2023-04-24T22:15:04.697Z,15.47
2023-04-24T22:17:33.664Z,15.38
2023-04-24T22:20:01.994Z,15.37
2023-04-24T22:22:29.929Z,15.37
2023-04-24T22:24:57.837Z,15.38
2023-04-24T22:27:25.827Z,15.40
2023-04-24T22:29:55.095Z,15.39
2023-04-24T22:32:23.088Z,15.42
2023-04-24T22:34:50.995Z,15.44
2023-04-24T22:37:18.949Z,15.39
2023-04-24T22:39:46.888Z,15.35
2023-04-24T22:42:15.734Z,15.15
2023-04-24T22:44:43.701Z,15.16
2023-04-24T22:47:12.960Z,15.33
2023-04-24T22:49:41.920Z,15.40
2023-04-24T22:52:10.941Z,15.44
2023-04-24T22:54:38.879Z,15.39
2023-04-24T22:57:06.864Z,15.21
2023-04-24T22:59:34.814Z,15.11
2023-04-24T23:02:02.763Z,15.07
2023-04-24T23:04:32.114Z,14.98
2023-04-24T23:07:00.075Z,14.92
2023-04-24T23:09:28.017Z,14.80
2023-04-24T23:11:58.002Z,14.66
2023-04-24T23:14:25.962Z,14.55
2023-04-24T23:16:54.025Z,14.60
2023-04-24T23:19:22.008Z,14.69
2023-04-24T23:21:52.022Z,14.68
2023-04-24T23:24:19.990Z,14.71
2023-04-24T23:26:47.934Z,14.78
2023-04-24T23:29:15.832Z,14.78
2023-04-24T23:31:43.770Z,14.76
2023-04-24T23:34:11.719Z,14.65
2023-04-24T23:36:39.602Z,14.77
2023-04-24T23:39:08.936Z,14.77
2023-04-24T23:41:37.635Z,14.70
2023-04-24T23:44:05.992Z,14.65
2023-04-24T23:46:33.918Z,14.63
2023-04-24T23:49:01.934Z,14.58
2023-04-24T23:51:29.897Z,14.57
2023-04-24T23:53:57.855Z,14.47
2023-04-24T23:56:29.247Z,14.39
2023-04-24T23:58:57.213Z,14.28
